createdAt,value
2023-01-11T00:01:59.588Z,4.70
2023-01-11T00:04:30.610Z,4.70
2023-01-11T00:07:00.027Z,4.70
2023-01-11T00:09:28.886Z,4.60
2023-01-11T00:11:57.955Z,4.60
2023-01-11T00:14:27.044Z,4.60
2023-01-11T00:16:56.093Z,4.70
2023-01-11T00:19:26.916Z,4.80
2023-01-11T00:21:55.930Z,4.70
2023-01-11T00:24:24.924Z,4.60
2023-01-11T00:26:53.699Z,4.60
2023-01-11T00:29:22.935Z,4.60
2023-01-11T00:31:53.398Z,4.50
2023-01-11T00:34:22.545Z,4.50
2023-01-11T00:36:53.298Z,4.50
2023-01-11T00:39:22.454Z,4.50
2023-01-11T00:42:08.866Z,4.50
2023-01-11T00:45:03.470Z,4.50
2023-01-11T00:47:49.676Z,4.40
2023-01-11T00:50:18.814Z,4.50
2023-01-11T00:52:49.607Z,4.60
2023-01-11T00:55:18.740Z,4.50
2023-01-11T00:57:47.799Z,4.40
2023-01-11T01:00:18.250Z,4.40
2023-01-11T01:02:47.505Z,4.50
2023-01-11T01:05:16.937Z,4.40
2023-01-11T01:07:46.799Z,4.40
2023-01-11T01:10:18.948Z,4.30
2023-01-11T01:13:05.763Z,4.20
2023-01-11T01:15:35.176Z,4.10
2023-01-11T01:18:04.329Z,4.10
2023-01-11T01:20:33.404Z,4.20
2023-01-11T01:23:02.511Z,4.30
2023-01-11T01:25:32.925Z,4.30
2023-01-11T01:28:01.883Z,4.20
2023-01-11T01:30:30.783Z,4.10
2023-01-11T01:32:59.856Z,4.20
2023-01-11T01:35:28.893Z,4.20
2023-01-11T01:37:58.084Z,4.20
2023-01-11T01:40:27.226Z,4.20
2023-01-11T01:42:57.786Z,4.20
2023-01-11T01:45:28.967Z,4.20
2023-01-11T01:48:01.867Z,4.20
2023-01-11T01:50:33.983Z,4.20
2023-01-11T01:53:06.586Z,4.20
2023-01-11T01:55:38.302Z,4.20
2023-01-11T01:58:13.066Z,4.10
2023-01-11T02:00:44.252Z,4.10
2023-01-11T02:03:18.753Z,4.00
2023-01-11T02:05:48.507Z,4.00
2023-01-11T02:08:24.660Z,4.00
2023-01-11T02:10:54.793Z,3.90
2023-01-11T02:13:25.135Z,3.90
2023-01-11T02:16:07.914Z,3.80
2023-01-11T02:18:38.912Z,3.70
2023-01-11T02:21:22.314Z,3.60
2023-01-11T02:24:20.813Z,3.60
2023-01-11T02:27:16.029Z,3.50
2023-01-11T02:29:57.870Z,3.40
2023-01-11T02:32:33.606Z,3.40
2023-01-11T02:35:14.256Z,3.40
2023-01-11T02:37:55.139Z,3.30
2023-01-11T02:40:31.179Z,3.20
2023-01-11T02:43:25.973Z,3.20
2023-01-11T02:46:03.195Z,3.10
2023-01-11T02:48:36.309Z,3.00
2023-01-11T02:51:09.972Z,2.90
2023-01-11T02:53:43.700Z,2.80
2023-01-11T02:56:17.070Z,2.80
2023-01-11T02:58:48.915Z,2.80
2023-01-11T03:01:23.730Z,2.70
2023-01-11T03:03:53.861Z,2.70
2023-01-11T03:06:27.525Z,2.70
2023-01-11T03:09:21.497Z,2.70
2023-01-11T03:12:23.069Z,2.70
2023-01-11T03:15:02.060Z,2.70
2023-01-11T03:17:44.201Z,2.70
2023-01-11T03:20:22.258Z,2.70
2023-01-11T03:23:02.361Z,2.60
2023-01-11T03:25:40.944Z,2.50
2023-01-11T03:28:18.191Z,2.40
2023-01-11T03:30:52.005Z,2.40
2023-01-11T03:33:29.314Z,2.30
2023-01-11T03:36:04.058Z,2.40
2023-01-11T03:38:39.108Z,2.40
2023-01-11T03:41:13.687Z,2.40
2023-01-11T03:43:46.134Z,2.50
2023-01-11T03:46:19.772Z,2.50
2023-01-11T03:48:54.862Z,2.50
2023-01-11T03:51:28.157Z,2.40
2023-01-11T03:54:00.735Z,2.40
2023-01-11T03:56:37.317Z,2.40
2023-01-11T03:59:06.490Z,2.30
2023-01-11T04:01:35.543Z,2.30
2023-01-11T04:04:06.132Z,2.30
2023-01-11T04:06:38.242Z,2.30
2023-01-11T04:09:07.303Z,2.30
2023-01-11T04:11:36.298Z,2.30
2023-01-11T04:14:05.401Z,2.30
2023-01-11T04:16:34.588Z,2.30
2023-01-11T04:19:04.179Z,2.30
2023-01-11T04:21:34.890Z,2.30
2023-01-11T04:24:03.884Z,2.30
2023-01-11T04:26:33.241Z,2.30
2023-01-11T04:29:02.268Z,2.30
2023-01-11T04:31:31.479Z,2.30
2023-01-11T04:34:00.532Z,2.30
2023-01-11T04:36:31.691Z,2.30
2023-01-11T04:39:02.579Z,2.40
2023-01-11T04:41:48.664Z,2.40
2023-01-11T04:44:17.870Z,2.40
2023-01-11T04:46:47.048Z,2.30
2023-01-11T04:49:16.298Z,2.30
2023-01-11T04:51:45.368Z,2.20
2023-01-11T04:54:17.388Z,2.20
2023-01-11T04:56:46.468Z,2.20
2023-01-11T04:59:15.713Z,2.20
2023-01-11T05:01:44.849Z,2.20
2023-01-11T05:04:13.902Z,2.20
2023-01-11T05:06:43.138Z,2.20
2023-01-11T05:09:16.123Z,2.20
2023-01-11T05:11:45.527Z,2.10
2023-01-11T05:14:15.012Z,2.10
2023-01-11T05:16:44.620Z,2.20
2023-01-11T05:19:13.757Z,2.10
2023-01-11T05:21:43.489Z,2.10
2023-01-11T05:24:18.224Z,2.10
2023-01-11T05:26:48.548Z,2.20
2023-01-11T05:29:20.442Z,2.20
2023-01-11T05:31:49.494Z,2.20
2023-01-11T05:34:19.054Z,2.20
2023-01-11T05:36:48.120Z,2.20
2023-01-11T05:39:18.520Z,2.20
2023-01-11T05:41:47.584Z,2.20
2023-01-11T05:44:33.488Z,2.20
2023-01-11T05:47:02.447Z,2.30
2023-01-11T05:49:31.665Z,2.20
2023-01-11T05:52:00.956Z,2.20
2023-01-11T05:54:31.648Z,2.20
2023-01-11T05:57:00.767Z,2.20
2023-01-11T05:59:32.008Z,2.20
2023-01-11T06:02:01.265Z,2.20
2023-01-11T06:04:30.242Z,2.20
2023-01-11T06:06:59.146Z,2.20
2023-01-11T06:09:28.324Z,2.20
2023-01-11T06:11:59.100Z,2.20
2023-01-11T06:14:27.881Z,2.30
2023-01-11T06:16:57.003Z,2.20
2023-01-11T06:19:26.000Z,2.20
2023-01-11T06:21:55.109Z,2.30
2023-01-11T06:24:24.183Z,2.30
2023-01-11T06:26:54.106Z,2.30
2023-01-11T06:29:24.543Z,2.30
2023-01-11T06:31:53.593Z,2.30
2023-01-11T06:34:22.388Z,2.30
2023-01-11T06:36:51.376Z,2.30
2023-01-11T06:39:21.080Z,2.30
2023-01-11T06:41:50.102Z,2.30
2023-01-11T06:44:19.142Z,2.20
2023-01-11T06:46:49.466Z,2.20
2023-01-11T06:49:18.485Z,2.20
2023-01-11T06:51:47.382Z,2.20
2023-01-11T06:54:21.969Z,2.30
2023-01-11T06:56:51.390Z,2.30
2023-01-11T06:59:20.245Z,2.30
2023-01-11T07:01:51.111Z,2.30
2023-01-11T07:04:21.628Z,2.30
2023-01-11T07:06:54.375Z,2.30
2023-01-11T07:09:23.477Z,2.40
2023-01-11T07:11:52.467Z,2.40
2023-01-11T07:14:22.158Z,2.40
2023-01-11T07:16:52.801Z,2.40
2023-01-11T07:19:21.839Z,2.50
2023-01-11T07:21:50.947Z,2.60
2023-01-11T07:24:20.553Z,2.60
2023-01-11T07:26:49.672Z,2.70
2023-01-11T07:29:18.895Z,2.70
2023-01-11T07:31:48.361Z,2.80
2023-01-11T07:34:19.964Z,2.80
2023-01-11T07:36:48.983Z,2.90
2023-01-11T07:39:17.707Z,3.00
2023-01-11T07:42:04.497Z,3.00
2023-01-11T07:44:33.603Z,3.00
2023-01-11T07:47:02.638Z,3.10
2023-01-11T07:49:33.466Z,3.10
2023-01-11T07:52:02.499Z,3.20
2023-01-11T07:54:31.533Z,3.30
2023-01-11T07:57:00.538Z,3.40
2023-01-11T07:59:30.671Z,3.50
2023-01-11T08:01:59.738Z,3.50
2023-01-11T08:04:28.768Z,3.60
2023-01-11T08:06:59.472Z,3.70
2023-01-11T08:09:28.555Z,3.70
2023-01-11T08:12:14.415Z,3.80
2023-01-11T08:14:43.114Z,3.70
2023-01-11T08:17:14.394Z,3.70
2023-01-11T08:19:44.429Z,3.80
2023-01-11T08:22:15.063Z,3.80
2023-01-11T08:24:43.749Z,3.70
2023-01-11T08:27:12.867Z,3.70
2023-01-11T08:29:44.155Z,3.70
2023-01-11T08:32:13.243Z,3.80
2023-01-11T08:34:42.277Z,3.80
2023-01-11T08:37:11.337Z,3.80
2023-01-11T08:39:41.975Z,3.80
2023-01-11T08:42:10.912Z,3.80
2023-01-11T08:44:39.741Z,3.80
2023-01-11T08:47:08.751Z,3.80
2023-01-11T08:49:37.414Z,3.80
2023-01-11T08:52:06.312Z,3.90
2023-01-11T08:54:35.289Z,3.90
2023-01-11T08:57:05.530Z,4.00
2023-01-11T08:59:34.679Z,4.00
2023-01-11T09:02:04.491Z,4.00
2023-01-11T09:04:36.435Z,4.10
2023-01-11T09:07:05.469Z,4.20
2023-01-11T09:09:34.178Z,4.20
2023-01-11T09:12:05.807Z,4.30
2023-01-11T09:14:36.383Z,4.40
2023-01-11T09:17:05.443Z,4.40
2023-01-11T09:19:34.132Z,4.40
2023-01-11T09:22:03.757Z,4.50
2023-01-11T09:24:32.667Z,4.50
2023-01-11T09:27:02.702Z,4.50
2023-01-11T09:29:31.737Z,4.50
2023-01-11T09:32:02.121Z,4.60
2023-01-11T09:34:30.994Z,4.60
2023-01-11T09:37:02.663Z,4.60
2023-01-11T09:39:33.244Z,4.80
2023-01-11T09:42:32.174Z,4.90
2023-01-11T09:45:09.429Z,5.00
2023-01-11T09:47:42.876Z,5.00
2023-01-11T09:50:18.786Z,5.10
2023-01-11T09:52:52.748Z,5.20
2023-01-11T09:55:31.039Z,5.30
2023-01-11T09:58:28.556Z,5.30
2023-01-11T10:01:06.970Z,5.40
2023-01-11T10:04:16.305Z,5.40
2023-01-11T10:06:59.202Z,5.50
2023-01-11T10:18:41.718Z,5.60
2023-01-11T10:19:18.410Z,5.60
2023-01-11T10:21:45.682Z,5.60
2023-01-11T10:24:22.756Z,5.70
2023-01-11T10:26:55.060Z,5.70
2023-01-11T10:29:57.610Z,5.70
2023-01-11T10:32:54.200Z,5.70
2023-01-11T10:35:45.714Z,5.70
2023-01-11T10:38:41.127Z,5.70
2023-01-11T10:41:26.061Z,5.70
2023-01-11T10:44:05.744Z,5.80
2023-01-11T10:46:39.816Z,5.80
2023-01-11T10:49:37.592Z,5.80
2023-01-11T10:52:18.796Z,5.80
2023-01-11T10:54:54.719Z,5.80
2023-01-11T10:57:38.536Z,5.90
2023-01-11T11:00:36.593Z,5.90
2023-01-11T11:03:20.543Z,6.00
2023-01-11T11:05:55.126Z,6.00
2023-01-11T11:08:31.878Z,6.00
2023-01-11T11:11:04.435Z,6.10
2023-01-11T11:13:46.969Z,6.10
2023-01-11T11:16:27.254Z,6.20
2023-01-11T11:18:59.315Z,6.10
2023-01-11T11:21:32.904Z,6.20
2023-01-11T11:24:03.636Z,6.10
2023-01-11T11:26:38.731Z,6.20
2023-01-11T11:29:10.166Z,6.20
2023-01-11T11:31:43.477Z,6.20
2023-01-11T11:34:17.586Z,6.30
2023-01-11T11:36:48.856Z,6.30
2023-01-11T11:39:22.054Z,6.40
2023-01-11T11:41:53.856Z,6.50
2023-01-11T11:44:25.484Z,6.50
2023-01-11T11:47:06.487Z,6.40
2023-01-11T11:49:38.421Z,6.40
2023-01-11T11:52:09.485Z,6.50
2023-01-11T11:54:43.385Z,6.40
2023-01-11T11:57:18.451Z,6.50
2023-01-11T11:59:49.029Z,6.50
2023-01-11T12:02:26.026Z,6.50
2023-01-11T12:04:56.864Z,6.60
2023-01-11T12:07:28.168Z,6.50
2023-01-11T12:10:03.625Z,6.40
2023-01-11T12:12:34.678Z,6.40
2023-01-11T12:15:19.579Z,6.40
2023-01-11T12:17:49.360Z,6.40
2023-01-11T12:20:38.925Z,6.50
2023-01-11T12:23:16.821Z,6.50
2023-01-11T12:26:06.368Z,6.50
2023-01-11T12:28:57.481Z,6.50
2023-01-11T12:31:32.646Z,6.60
2023-01-11T12:34:10.931Z,6.70
2023-01-11T12:36:49.300Z,6.70
2023-01-11T12:39:26.031Z,6.80
2023-01-11T12:42:05.357Z,6.70
2023-01-11T12:44:50.835Z,6.60
2023-01-11T12:47:56.220Z,6.60
2023-01-11T12:50:30.110Z,6.50
2023-01-11T12:53:10.751Z,6.50
2023-01-11T12:55:51.645Z,6.50
2023-01-11T12:58:26.178Z,6.40
2023-01-11T13:01:13.763Z,6.40
2023-01-11T13:04:28.313Z,6.40
2023-01-11T13:07:03.772Z,6.40
2023-01-11T13:09:44.939Z,6.30
2023-01-11T13:12:20.358Z,6.30
2023-01-11T13:15:03.437Z,6.30
2023-01-11T13:17:39.076Z,6.20
2023-01-11T13:20:25.644Z,6.30
2023-01-11T13:22:59.384Z,6.40
2023-01-11T13:25:30.039Z,6.40
2023-01-11T13:28:04.944Z,6.40
2023-01-11T13:30:34.603Z,6.50
2023-01-11T13:33:12.377Z,6.50
2023-01-11T13:35:46.892Z,6.40
2023-01-11T13:38:27.419Z,6.40
2023-01-11T13:41:01.397Z,6.40
2023-01-11T13:43:37.964Z,6.40
2023-01-11T13:46:15.447Z,6.30
2023-01-11T13:48:51.422Z,6.40
2023-01-11T13:51:29.027Z,6.40
2023-01-11T13:54:03.440Z,6.40
2023-01-11T13:56:35.719Z,6.40
2023-01-11T13:59:09.488Z,6.30
2023-01-11T14:01:47.685Z,6.30
2023-01-11T14:04:23.792Z,6.30
2023-01-11T14:07:06.784Z,6.30
2023-01-11T14:09:58.320Z,6.40
2023-01-11T14:12:38.254Z,6.40
2023-01-11T14:15:20.226Z,6.40
2023-01-11T14:18:09.351Z,6.40
2023-01-11T14:20:47.366Z,6.40
2023-01-11T14:23:19.077Z,6.40
2023-01-11T14:26:29.278Z,6.30
2023-01-11T14:29:12.755Z,6.30
2023-01-11T14:32:00.854Z,6.20
2023-01-11T14:34:53.800Z,6.20
2023-01-11T14:37:51.383Z,6.30
2023-01-11T14:40:52.370Z,6.20
2023-01-11T14:43:40.956Z,6.20
2023-01-11T14:46:42.882Z,6.20
2023-01-11T14:49:26.692Z,6.30
2023-01-11T14:52:00.469Z,6.30
2023-01-11T14:54:33.921Z,6.20
2023-01-11T14:57:02.948Z,6.10
2023-01-11T14:59:48.592Z,6.00
2023-01-11T15:02:26.327Z,6.10
2023-01-11T15:05:33.972Z,6.00
2023-01-11T15:08:22.012Z,6.00
2023-01-11T15:10:59.172Z,6.00
2023-01-11T15:13:32.508Z,5.90
2023-01-11T15:16:35.554Z,5.90
2023-01-11T15:19:07.611Z,5.90
2023-01-11T15:21:41.799Z,5.90
2023-01-11T15:24:24.639Z,5.90
2023-01-11T15:26:56.296Z,5.90
2023-01-11T15:29:29.192Z,6.00
2023-01-11T15:32:26.457Z,6.00
2023-01-11T15:34:55.905Z,6.00
2023-01-11T15:37:36.761Z,6.00
2023-01-11T15:40:16.535Z,6.00
2023-01-11T15:43:23.069Z,6.00
2023-01-11T15:46:42.726Z,6.00
2023-01-11T15:49:40.851Z,6.00
2023-01-11T15:52:27.385Z,6.10
2023-01-11T15:55:23.503Z,6.20
2023-01-11T15:58:25.821Z,6.20
2023-01-11T16:01:23.291Z,6.10
2023-01-11T16:04:00.927Z,6.10
2023-01-11T16:06:39.750Z,6.10
2023-01-11T16:09:33.009Z,6.20
2023-01-11T16:12:16.332Z,6.30
2023-01-11T16:15:21.578Z,6.20
2023-01-11T16:17:52.017Z,6.20
2023-01-11T16:20:24.857Z,6.30
2023-01-11T16:22:57.879Z,6.30
2023-01-11T16:25:30.640Z,6.40
2023-01-11T16:28:01.306Z,6.30
2023-01-11T16:30:32.542Z,6.40
2023-01-11T16:33:18.768Z,6.40
2023-01-11T16:35:47.601Z,6.40
2023-01-11T16:38:19.790Z,6.50
2023-01-11T16:40:52.515Z,6.50
2023-01-11T16:43:24.520Z,6.50
2023-01-11T16:45:56.104Z,6.50
2023-01-11T16:48:26.301Z,6.60
2023-01-11T16:51:03.759Z,6.60
2023-01-11T16:53:34.485Z,6.60
2023-01-11T16:56:06.562Z,6.60
2023-01-11T16:58:37.139Z,6.60
2023-01-11T17:01:09.206Z,6.60
2023-01-11T17:03:43.169Z,6.70
2023-01-11T17:06:19.477Z,6.70
2023-01-11T17:08:52.379Z,6.70
2023-01-11T17:11:33.060Z,6.70
2023-01-11T17:14:35.366Z,6.70
2023-01-11T17:17:08.341Z,6.80
2023-01-11T17:19:39.107Z,6.70
2023-01-11T17:22:09.752Z,6.70
2023-01-11T17:24:42.648Z,6.70
2023-01-11T17:27:20.224Z,6.70
2023-01-11T17:29:50.058Z,6.70
2023-01-11T17:32:24.236Z,6.80
2023-01-11T17:34:54.025Z,6.80
2023-01-11T17:37:23.509Z,6.80
2023-01-11T17:39:53.517Z,6.70
2023-01-11T17:42:40.785Z,6.70
2023-01-11T17:45:21.096Z,6.70
2023-01-11T17:47:54.192Z,6.70
2023-01-11T17:50:29.744Z,6.70
2023-01-11T17:53:07.660Z,6.70
2023-01-11T17:55:36.537Z,6.70
2023-01-11T17:58:21.719Z,6.70
2023-01-11T18:01:25.005Z,6.70
2023-01-11T18:03:58.289Z,6.70
2023-01-11T18:06:35.242Z,6.70
2023-01-11T18:09:05.856Z,6.70
2023-01-11T18:11:36.480Z,6.60
2023-01-11T18:14:08.568Z,6.60
2023-01-11T18:16:37.848Z,6.50
2023-01-11T18:19:25.337Z,6.50
2023-01-11T18:21:55.123Z,6.50
2023-01-11T18:24:32.259Z,6.40
2023-01-11T18:27:26.469Z,6.40
2023-01-11T18:29:56.244Z,6.30
2023-01-11T18:32:26.256Z,6.30
2023-01-11T18:34:59.429Z,6.30
2023-01-11T18:37:28.487Z,6.30
2023-01-11T18:39:57.347Z,6.30
2023-01-11T18:42:29.769Z,6.30
2023-01-11T18:44:58.685Z,6.20
2023-01-11T18:47:30.436Z,6.20
2023-01-11T18:50:01.293Z,6.30
2023-01-11T18:52:30.356Z,6.30
2023-01-11T18:54:59.520Z,6.30
2023-01-11T18:57:28.563Z,6.20
2023-01-11T18:59:57.895Z,6.20
2023-01-11T19:02:28.570Z,6.30
2023-01-11T19:04:58.442Z,6.40
2023-01-11T19:07:28.646Z,6.20
2023-01-11T19:09:59.316Z,6.30
2023-01-11T19:12:28.366Z,6.20
2023-01-11T19:14:57.208Z,6.30
2023-01-11T19:17:27.272Z,6.30
2023-01-11T19:19:56.050Z,6.30
2023-01-11T19:22:26.690Z,6.30
2023-01-11T19:24:58.123Z,6.30
2023-01-11T19:27:27.290Z,6.30
2023-01-11T19:29:57.988Z,6.30
2023-01-11T19:32:26.919Z,6.30
2023-01-11T19:34:58.141Z,6.40
2023-01-11T19:37:27.568Z,6.30
2023-01-11T19:39:58.107Z,6.30
2023-01-11T19:42:27.547Z,6.30
2023-01-11T19:44:56.511Z,6.30
2023-01-11T19:47:25.507Z,6.40
2023-01-11T19:49:58.899Z,6.40
2023-01-11T19:52:29.165Z,6.40
2023-01-11T19:54:59.747Z,6.40
2023-01-11T19:57:29.687Z,6.40
2023-01-11T19:59:58.635Z,6.40
2023-01-11T20:02:27.435Z,6.40
2023-01-11T20:04:56.490Z,6.40
2023-01-11T20:07:25.673Z,6.50
2023-01-11T20:09:54.751Z,6.40
2023-01-11T20:12:25.531Z,6.50
2023-01-11T20:14:57.721Z,6.50
2023-01-11T20:17:27.065Z,6.50
2023-01-11T20:19:56.079Z,6.50
2023-01-11T20:22:25.275Z,6.50
2023-01-11T20:24:56.058Z,6.50
2023-01-11T20:27:26.412Z,6.60
2023-01-11T20:29:55.264Z,6.50
2023-01-11T20:32:40.227Z,6.60
2023-01-11T20:35:11.958Z,6.60
2023-01-11T20:37:41.169Z,6.60
2023-01-11T20:40:14.259Z,6.60
2023-01-11T20:42:45.221Z,6.60
2023-01-11T20:45:14.248Z,6.70
2023-01-11T20:47:42.981Z,6.70
2023-01-11T20:50:12.590Z,6.70
2023-01-11T20:52:41.674Z,6.70
2023-01-11T20:55:11.549Z,6.70
2023-01-11T20:57:40.871Z,6.70
2023-01-11T21:00:13.287Z,6.70
2023-01-11T21:02:42.536Z,6.70
2023-01-11T21:05:12.516Z,6.70
2023-01-11T21:07:41.273Z,6.70
2023-01-11T21:10:11.336Z,6.80
2023-01-11T21:12:40.531Z,6.80
2023-01-11T21:15:12.464Z,6.80
2023-01-11T21:17:41.692Z,6.80
2023-01-11T21:20:11.973Z,6.80
2023-01-11T21:22:41.059Z,6.80
2023-01-11T21:25:10.975Z,6.90
2023-01-11T21:27:40.122Z,6.80
2023-01-11T21:30:12.551Z,6.90
2023-01-11T21:32:41.676Z,6.90
2023-01-11T21:35:11.095Z,6.90
2023-01-11T21:37:40.165Z,7.00
2023-01-11T21:40:10.326Z,7.00
2023-01-11T21:42:39.278Z,7.00
2023-01-11T21:45:11.922Z,7.00
2023-01-11T21:47:40.768Z,7.00
2023-01-11T21:50:10.889Z,7.00
2023-01-11T21:52:39.896Z,7.00
2023-01-11T21:55:10.982Z,7.00
2023-01-11T21:57:39.733Z,7.00
2023-01-11T22:00:14.621Z,7.00
2023-01-11T22:02:43.312Z,7.00
2023-01-11T22:05:12.209Z,7.10
2023-01-11T22:07:43.611Z,7.10
2023-01-11T22:10:12.929Z,7.10
2023-01-11T22:12:42.047Z,7.10
2023-01-11T22:15:13.187Z,7.10
2023-01-11T22:17:42.269Z,7.10
2023-01-11T22:20:15.191Z,7.20
2023-01-11T22:22:44.205Z,7.10
2023-01-11T22:25:12.928Z,7.10
2023-01-11T22:27:42.006Z,7.20
2023-01-11T22:30:14.261Z,7.10
2023-01-11T22:32:43.700Z,7.20
2023-01-11T22:35:12.712Z,7.20
2023-01-11T22:37:41.732Z,7.20
2023-01-11T22:40:11.391Z,7.20
2023-01-11T22:42:40.441Z,7.20
2023-01-11T22:45:13.147Z,7.20
2023-01-11T22:47:42.135Z,7.20
2023-01-11T22:50:12.047Z,7.30
2023-01-11T22:52:41.060Z,7.30
2023-01-11T22:55:10.577Z,7.20
2023-01-11T22:57:39.763Z,7.20
2023-01-11T23:00:10.175Z,7.20
2023-01-11T23:02:44.216Z,7.30
2023-01-11T23:05:26.972Z,7.20
2023-01-11T23:07:55.892Z,7.30
2023-01-11T23:10:24.897Z,7.30
2023-01-11T23:13:11.191Z,7.30
2023-01-11T23:15:41.068Z,7.30
2023-01-11T23:18:11.663Z,7.30
2023-01-11T23:20:40.664Z,7.30
2023-01-11T23:23:09.684Z,7.40
2023-01-11T23:25:38.709Z,7.40
2023-01-11T23:28:07.713Z,7.40
2023-01-11T23:30:36.483Z,7.40
2023-01-11T23:33:05.583Z,7.40
2023-01-11T23:35:36.306Z,7.50
2023-01-11T23:38:05.400Z,7.50
2023-01-11T23:40:57.961Z,7.40
2023-01-11T23:43:25.715Z,7.40
2023-01-11T23:46:14.723Z,7.50
2023-01-11T23:48:42.535Z,7.50
2023-01-11T23:51:13.152Z,7.50
2023-01-11T23:53:42.316Z,7.50
2023-01-11T23:56:11.347Z,7.50
2023-01-11T23:58:40.298Z,7.50
